createdAt,value
2022-11-02T00:01:24.006Z,2.15
2022-11-02T00:03:51.047Z,3.05
2022-11-02T00:06:18.178Z,2.45
2022-11-02T00:08:44.890Z,3.17
2022-11-02T00:11:12.079Z,4.07
2022-11-02T00:13:38.780Z,4.18
2022-11-02T00:16:09.342Z,2.13
2022-11-02T00:18:36.939Z,3.38
2022-11-02T00:21:04.569Z,2.55
2022-11-02T00:23:32.247Z,3.95
2022-11-02T00:26:02.511Z,4.35
2022-11-02T00:28:30.453Z,4.40
2022-11-02T00:30:57.749Z,3.78
2022-11-02T00:33:26.703Z,3.58
2022-11-02T00:35:54.910Z,3.25
2022-11-02T00:38:21.668Z,3.45
2022-11-02T00:40:48.428Z,3.80
2022-11-02T00:43:15.782Z,2.13
2022-11-02T00:45:42.871Z,3.90
2022-11-02T00:48:10.183Z,3.33
2022-11-02T00:50:36.909Z,2.92
2022-11-02T00:53:03.841Z,2.25
2022-11-02T00:55:30.717Z,2.28
2022-11-02T00:58:02.291Z,2.30
2022-11-02T01:00:29.275Z,2.42
2022-11-02T01:02:59.203Z,2.80
2022-11-02T01:05:26.180Z,3.78
2022-11-02T01:07:53.002Z,3.58
2022-11-02T01:10:19.808Z,2.17
2022-11-02T01:12:46.942Z,3.70
2022-11-02T01:15:13.683Z,2.25
2022-11-02T01:17:40.412Z,2.90
2022-11-02T01:20:08.186Z,2.38
2022-11-02T01:22:34.950Z,2.90
2022-11-02T01:25:01.735Z,3.38
2022-11-02T01:27:28.708Z,3.90
2022-11-02T01:29:55.487Z,2.88
2022-11-02T01:32:22.219Z,3.25
2022-11-02T01:34:48.957Z,2.55
2022-11-02T01:37:15.801Z,2.35
2022-11-02T01:39:42.521Z,3.65
2022-11-02T01:42:24.739Z,3.65
2022-11-02T01:44:51.725Z,2.03
2022-11-02T01:47:24.423Z,3.40
2022-11-02T01:49:56.963Z,3.72
2022-11-02T01:52:32.469Z,3.55
2022-11-02T01:55:16.543Z,2.28
2022-11-02T01:57:48.099Z,2.58
2022-11-02T02:00:18.594Z,3.55
2022-11-02T02:03:18.408Z,3.38
2022-11-02T02:05:53.067Z,2.45
2022-11-02T02:08:21.733Z,3.88
2022-11-02T02:10:48.466Z,2.22
2022-11-02T02:13:16.371Z,3.25
2022-11-02T02:16:08.441Z,3.53
2022-11-02T02:18:55.689Z,2.95
2022-11-02T02:21:42.101Z,4.00
2022-11-02T02:24:15.588Z,3.75
2022-11-02T02:27:09.657Z,3.80
2022-11-02T02:29:43.253Z,3.13
2022-11-02T02:32:25.264Z,2.70
2022-11-02T02:34:57.964Z,2.28
2022-11-02T02:37:39.645Z,2.97
2022-11-02T02:40:11.261Z,3.70
2022-11-02T02:42:46.951Z,3.60
2022-11-02T02:45:26.069Z,2.60
2022-11-02T02:48:05.092Z,4.13
2022-11-02T02:50:39.381Z,2.58
2022-11-02T02:53:07.972Z,3.45
2022-11-02T02:55:41.480Z,2.47
2022-11-02T02:58:22.688Z,3.22
2022-11-02T03:00:50.242Z,3.00
2022-11-02T03:03:20.758Z,1.83
2022-11-02T03:06:23.051Z,3.25
2022-11-02T03:09:06.215Z,3.83
2022-11-02T03:11:34.877Z,3.60
2022-11-02T03:14:06.256Z,4.60
2022-11-02T03:16:44.520Z,3.65
2022-11-02T03:19:20.595Z,4.10
2022-11-02T03:21:55.227Z,3.42
2022-11-02T03:24:33.492Z,5.15
2022-11-02T03:27:15.631Z,2.47
2022-11-02T03:29:48.301Z,2.60
2022-11-02T03:32:33.482Z,4.18
2022-11-02T03:35:05.359Z,3.78
2022-11-02T03:37:40.193Z,3.90
2022-11-02T03:40:20.089Z,2.97
2022-11-02T03:42:48.840Z,4.25
2022-11-02T03:45:26.220Z,4.05
2022-11-02T03:48:01.710Z,4.63
2022-11-02T03:50:29.815Z,3.60
2022-11-02T03:53:05.290Z,5.10
2022-11-02T03:55:40.874Z,5.00
2022-11-02T03:58:11.445Z,4.95
2022-11-02T04:00:51.460Z,5.35
2022-11-02T04:03:19.527Z,4.35
2022-11-02T04:05:46.374Z,4.68
2022-11-02T04:08:49.163Z,4.45
2022-11-02T04:11:37.466Z,4.90
2022-11-02T04:14:27.971Z,4.65
2022-11-02T04:17:16.132Z,3.08
2022-11-02T04:19:49.931Z,4.45
2022-11-02T04:22:37.167Z,5.13
2022-11-02T04:25:18.179Z,4.57
2022-11-02T04:27:52.808Z,3.35
2022-11-02T04:30:24.103Z,5.55
2022-11-02T04:33:12.130Z,2.78
2022-11-02T04:35:45.385Z,4.63
2022-11-02T04:38:31.656Z,3.63
2022-11-02T04:41:18.773Z,4.13
2022-11-02T04:43:48.606Z,4.50
2022-11-02T04:46:16.919Z,4.82
2022-11-02T04:48:44.712Z,4.20
2022-11-02T04:51:11.431Z,5.38
2022-11-02T04:53:39.495Z,4.03
2022-11-02T04:56:09.217Z,4.93
2022-11-02T04:58:36.109Z,4.00
2022-11-02T05:01:11.327Z,5.15
2022-11-02T05:03:38.197Z,3.22
2022-11-02T05:06:05.328Z,4.68
2022-11-02T05:08:32.543Z,3.35
2022-11-02T05:10:59.996Z,5.30
2022-11-02T05:13:28.541Z,3.47
2022-11-02T05:15:59.583Z,4.70
2022-11-02T05:18:28.808Z,4.45
2022-11-02T05:20:58.149Z,4.13
2022-11-02T05:23:28.204Z,2.47
2022-11-02T05:25:56.934Z,5.18
2022-11-02T05:28:25.906Z,4.63
2022-11-02T05:30:52.963Z,3.85
2022-11-02T05:33:20.506Z,4.55
2022-11-02T05:35:47.983Z,4.15
2022-11-02T05:38:15.030Z,2.63
2022-11-02T05:40:44.326Z,4.10
2022-11-02T05:43:11.508Z,4.50
2022-11-02T05:45:38.832Z,5.40
2022-11-02T05:48:08.469Z,3.90
2022-11-02T05:50:35.239Z,4.18
2022-11-02T05:53:03.556Z,4.38
2022-11-02T05:55:30.546Z,4.50
2022-11-02T05:57:57.326Z,4.97
2022-11-02T06:00:24.301Z,3.88
2022-11-02T06:02:57.217Z,5.30
2022-11-02T06:05:25.129Z,4.57
2022-11-02T06:07:52.995Z,5.20
2022-11-02T06:10:19.692Z,3.63
2022-11-02T06:12:46.454Z,5.00
2022-11-02T06:15:13.244Z,3.97
2022-11-02T06:17:40.592Z,4.25
2022-11-02T06:20:08.456Z,3.55
2022-11-02T06:22:41.924Z,3.30
2022-11-02T06:25:09.576Z,5.88
2022-11-02T06:27:36.705Z,4.78
2022-11-02T06:30:08.908Z,6.30
2022-11-02T06:32:35.645Z,4.10
2022-11-02T06:35:02.337Z,4.03
2022-11-02T06:37:32.511Z,2.97
2022-11-02T06:39:59.243Z,5.45
2022-11-02T06:42:25.964Z,5.60
2022-11-02T06:44:52.763Z,5.43
2022-11-02T06:47:19.451Z,4.22
2022-11-02T06:49:46.136Z,4.63
2022-11-02T06:52:13.281Z,6.55
2022-11-02T06:54:39.970Z,4.82
2022-11-02T06:57:06.742Z,5.65
2022-11-02T06:59:33.418Z,5.45
2022-11-02T07:02:00.288Z,5.85
2022-11-02T07:04:27.107Z,4.95
2022-11-02T07:06:53.900Z,7.15
2022-11-02T07:09:20.603Z,4.28
2022-11-02T07:11:47.388Z,5.50
2022-11-02T07:14:14.237Z,5.15
2022-11-02T07:16:40.975Z,6.07
2022-11-02T07:19:07.707Z,6.97
2022-11-02T07:21:34.607Z,16.15
2022-11-02T07:24:01.427Z,4.88
2022-11-02T07:26:28.240Z,4.78
2022-11-02T07:28:58.253Z,5.15
2022-11-02T07:31:26.037Z,4.70
2022-11-02T07:33:52.746Z,4.68
2022-11-02T07:36:19.433Z,5.50
2022-11-02T07:38:46.130Z,5.93
2022-11-02T07:41:12.932Z,4.80
2022-11-02T07:43:42.989Z,4.30
2022-11-02T07:46:37.277Z,4.45
2022-11-02T07:49:03.940Z,4.20
2022-11-02T07:51:30.650Z,4.15
2022-11-02T07:53:57.855Z,4.13
2022-11-02T07:56:24.541Z,4.22
2022-11-02T07:58:51.242Z,3.97
2022-11-02T08:01:17.990Z,3.72
2022-11-02T08:03:44.893Z,4.22
2022-11-02T08:06:11.737Z,3.72
2022-11-02T08:08:38.451Z,3.53
2022-11-02T08:11:07.346Z,4.05
2022-11-02T08:13:35.133Z,3.85
2022-11-02T08:16:05.225Z,3.47
2022-11-02T08:18:33.884Z,3.75
2022-11-02T08:21:00.691Z,3.17
2022-11-02T08:23:27.822Z,3.45
2022-11-02T08:25:59.925Z,3.10
2022-11-02T08:28:36.504Z,3.40
2022-11-02T08:31:03.349Z,3.50
2022-11-02T08:33:30.536Z,3.30
2022-11-02T08:36:03.351Z,3.60
2022-11-02T08:38:30.663Z,3.05
2022-11-02T08:40:57.481Z,3.00
2022-11-02T08:43:24.316Z,2.80
2022-11-02T08:51:05.655Z,2.70
2022-11-02T08:53:32.599Z,2.75
2022-11-02T08:55:59.522Z,2.80
2022-11-02T08:58:26.779Z,2.33
2022-11-02T09:00:54.014Z,2.50
2022-11-02T09:03:26.113Z,2.20
2022-11-02T09:05:58.901Z,2.20
2022-11-02T09:08:26.239Z,2.85
2022-11-02T09:11:08.346Z,2.25
2022-11-02T09:16:58.339Z,2.40
2022-11-02T09:19:25.175Z,2.00
2022-11-02T09:21:52.006Z,2.47
2022-11-02T09:24:18.845Z,1.83
2022-11-02T09:26:45.747Z,1.85
2022-11-02T09:29:13.203Z,1.67
2022-11-02T09:31:40.317Z,2.10
2022-11-02T09:40:59.083Z,1.48
2022-11-02T09:51:25.014Z,2.03
2022-11-02T09:57:38.842Z,15.70
2022-11-02T10:00:39.978Z,3.15
2022-11-02T10:10:07.158Z,5.95
2022-11-02T10:12:37.710Z,5.05
2022-11-02T10:15:25.679Z,1.65
2022-11-02T10:17:57.500Z,2.85
2022-11-02T10:20:32.808Z,2.90
2022-11-02T10:23:06.005Z,2.92
2022-11-02T10:25:35.013Z,1.75
2022-11-02T10:28:17.471Z,2.17
2022-11-02T10:30:45.142Z,3.53
2022-11-02T10:33:20.300Z,2.03
2022-11-02T10:39:21.837Z,1.55
2022-11-02T10:42:00.408Z,1.80
2022-11-02T10:45:11.900Z,1.80
2022-11-02T10:48:14.898Z,1.98
2022-11-02T10:51:01.349Z,1.60
2022-11-02T10:53:41.298Z,1.50
2022-11-02T10:56:23.623Z,1.60
2022-11-02T10:59:02.407Z,1.73
2022-11-02T11:01:31.018Z,1.30
2022-11-02T11:04:07.035Z,1.40
2022-11-02T11:06:41.186Z,1.80
2022-11-02T11:09:18.434Z,1.23
2022-11-02T11:11:59.851Z,1.30
2022-11-02T11:20:37.995Z,1.58
2022-11-02T11:23:16.345Z,1.52
2022-11-02T11:25:43.529Z,1.40
2022-11-02T11:28:27.462Z,1.48
2022-11-02T11:31:17.389Z,1.33
2022-11-02T11:33:52.063Z,1.48
2022-11-02T11:36:36.488Z,1.40
2022-11-02T11:39:34.728Z,1.58
2022-11-02T11:42:07.383Z,1.42
2022-11-02T11:44:34.899Z,1.70
2022-11-02T11:47:02.478Z,1.35
2022-11-02T11:50:07.112Z,1.50
2022-11-02T11:52:33.533Z,1.60
2022-11-02T11:55:02.991Z,1.30
2022-11-02T11:57:34.600Z,1.48
2022-11-02T12:00:29.046Z,1.60
2022-11-02T12:03:12.143Z,1.65
2022-11-02T12:05:58.362Z,1.30
2022-11-02T12:08:36.912Z,1.60
2022-11-02T12:11:06.434Z,1.67
2022-11-02T12:13:56.104Z,1.50
2022-11-02T12:16:35.690Z,1.40
2022-11-02T12:19:23.375Z,1.40
2022-11-02T12:22:23.003Z,1.20
2022-11-02T12:25:00.444Z,1.10
2022-11-02T12:27:57.729Z,1.50
2022-11-02T12:31:14.353Z,1.50
2022-11-02T12:34:01.611Z,1.67
2022-11-02T12:37:18.732Z,1.77
2022-11-02T12:39:49.122Z,1.80
2022-11-02T12:42:43.084Z,1.30
2022-11-02T12:45:33.184Z,1.30
2022-11-02T12:48:05.083Z,1.33
2022-11-02T12:50:59.705Z,1.23
2022-11-02T12:53:48.959Z,1.50
2022-11-02T12:56:47.357Z,1.20
2022-11-02T12:59:23.454Z,1.40
2022-11-02T13:01:53.242Z,1.35
2022-11-02T13:04:26.142Z,1.98
2022-11-02T13:07:03.797Z,1.60
2022-11-02T13:09:38.351Z,1.88
2022-11-02T13:12:21.543Z,1.70
2022-11-02T13:14:57.579Z,1.23
2022-11-02T13:17:33.368Z,1.58
2022-11-02T13:20:29.468Z,1.60
2022-11-02T13:23:07.047Z,1.25
2022-11-02T13:25:42.676Z,1.83
2022-11-02T13:28:26.278Z,1.50
2022-11-02T13:30:55.329Z,1.45
2022-11-02T13:33:30.601Z,1.27
2022-11-02T13:35:57.370Z,1.02
2022-11-02T13:38:42.713Z,1.63
2022-11-02T13:41:19.213Z,1.20
2022-11-02T13:44:12.619Z,1.35
2022-11-02T13:46:39.299Z,2.00
2022-11-02T13:49:12.354Z,1.40
2022-11-02T13:51:44.945Z,1.30
2022-11-02T13:54:20.450Z,1.30
2022-11-02T13:56:52.367Z,1.30
2022-11-02T13:59:28.645Z,1.10
2022-11-02T14:04:24.656Z,1.10
2022-11-02T14:07:02.735Z,1.05
2022-11-02T14:09:39.727Z,1.00
2022-11-02T14:12:21.640Z,1.30
2022-11-02T14:15:16.592Z,1.17
2022-11-02T14:18:04.910Z,1.45
2022-11-02T14:20:40.616Z,1.20
2022-11-02T14:23:10.745Z,1.57
2022-11-02T14:25:55.526Z,1.48
2022-11-02T14:28:22.562Z,1.45
2022-11-02T14:30:56.586Z,1.50
2022-11-02T14:33:47.593Z,1.40
2022-11-02T14:36:18.326Z,1.50
2022-11-02T14:38:51.077Z,1.30
2022-11-02T14:41:32.345Z,1.40
2022-11-02T14:44:07.001Z,1.55
2022-11-02T14:47:07.696Z,1.73
2022-11-02T14:49:38.725Z,5.05
2022-11-02T14:52:20.108Z,6.22
2022-11-02T14:54:50.543Z,3.58
2022-11-02T14:57:29.652Z,2.70
2022-11-02T14:59:59.931Z,2.00
2022-11-02T15:02:43.067Z,2.47
2022-11-02T15:05:31.466Z,1.95
2022-11-02T15:08:20.497Z,1.60
2022-11-02T15:10:47.460Z,1.65
2022-11-02T15:13:20.327Z,1.48
2022-11-02T15:15:56.216Z,1.33
2022-11-02T15:18:31.619Z,1.52
2022-11-02T15:24:28.559Z,4.80
2022-11-02T15:26:59.455Z,2.00
2022-11-02T15:29:40.815Z,4.03
2022-11-02T15:32:17.091Z,5.60
2022-11-02T15:34:50.432Z,7.72
2022-11-02T15:37:20.569Z,4.93
2022-11-02T15:39:56.247Z,3.53
2022-11-02T15:42:57.291Z,1.75
2022-11-02T15:46:09.202Z,1.70
2022-11-02T15:48:48.432Z,4.45
2022-11-02T15:51:32.984Z,1.42
2022-11-02T15:54:13.607Z,6.28
2022-11-02T15:56:49.126Z,6.95
2022-11-02T15:59:25.088Z,7.60
2022-11-02T16:02:19.126Z,2.55
2022-11-02T16:04:48.059Z,2.20
2022-11-02T16:07:17.369Z,3.33
2022-11-02T16:09:45.852Z,5.80
2022-11-02T16:12:16.733Z,5.47
2022-11-02T16:14:57.651Z,4.63
2022-11-02T16:17:31.779Z,4.50
2022-11-02T16:20:21.826Z,8.10
2022-11-02T16:22:49.172Z,6.75
2022-11-02T16:25:38.500Z,4.07
2022-11-02T16:28:33.059Z,3.45
2022-11-02T16:31:20.433Z,3.53
2022-11-02T16:33:53.041Z,4.22
2022-11-02T16:36:26.822Z,4.85
2022-11-02T16:39:03.370Z,4.82
2022-11-02T16:41:32.645Z,5.43
2022-11-02T16:44:07.456Z,5.65
2022-11-02T16:46:59.647Z,6.05
2022-11-02T16:49:29.851Z,9.82
2022-11-02T16:52:17.297Z,9.38
2022-11-02T16:54:45.142Z,11.98
2022-11-02T16:57:12.318Z,5.60
2022-11-02T17:00:01.472Z,7.10
2022-11-02T17:02:40.735Z,11.25
2022-11-02T17:05:16.622Z,7.55
2022-11-02T17:07:47.408Z,8.18
2022-11-02T17:10:25.260Z,9.35
2022-11-02T17:12:52.264Z,6.72
2022-11-02T17:15:21.887Z,7.13
2022-11-02T17:17:49.182Z,6.20
2022-11-02T17:20:22.782Z,6.40
2022-11-02T17:22:58.907Z,5.30
2022-11-02T17:25:30.076Z,3.42
2022-11-02T17:27:59.316Z,6.20
2022-11-02T17:30:35.342Z,3.78
2022-11-02T17:33:23.692Z,4.07
2022-11-02T17:35:52.236Z,4.85
2022-11-02T17:38:25.677Z,5.20
2022-11-02T17:40:53.196Z,5.53
2022-11-02T17:43:20.639Z,4.18
2022-11-02T17:45:57.302Z,5.70
2022-11-02T17:48:24.641Z,5.90
2022-11-02T17:50:56.657Z,4.60
2022-11-02T17:53:24.421Z,5.30
2022-11-02T17:55:51.725Z,6.13
2022-11-02T17:58:18.481Z,3.53
2022-11-02T18:00:45.451Z,3.55
2022-11-02T18:03:19.014Z,5.35
2022-11-02T18:05:49.522Z,4.55
2022-11-02T18:08:18.283Z,4.40
2022-11-02T18:10:46.806Z,4.82
2022-11-02T18:13:15.687Z,5.88
2022-11-02T18:15:43.042Z,5.68
2022-11-02T18:18:10.299Z,5.13
2022-11-02T18:20:41.486Z,6.28
2022-11-02T18:23:15.515Z,4.57
2022-11-02T18:25:42.591Z,6.75
2022-11-02T18:28:09.393Z,5.95
2022-11-02T18:30:36.238Z,5.97
2022-11-02T18:33:03.726Z,5.55
2022-11-02T18:35:30.576Z,5.15
2022-11-02T18:37:57.303Z,5.28
2022-11-02T18:40:24.024Z,5.45
2022-11-02T18:42:50.814Z,5.35
2022-11-02T18:45:17.733Z,3.63
2022-11-02T18:47:44.545Z,4.65
2022-11-02T18:50:12.776Z,4.90
2022-11-02T18:52:40.331Z,4.60
2022-11-02T18:55:07.872Z,4.65
2022-11-02T18:57:34.645Z,3.88
2022-11-02T19:00:02.936Z,4.47
2022-11-02T19:02:29.895Z,4.53
2022-11-02T19:04:57.115Z,4.25
2022-11-02T19:07:42.296Z,4.95
2022-11-02T19:10:09.882Z,4.80
2022-11-02T19:12:36.711Z,5.25
2022-11-02T19:15:03.839Z,5.70
2022-11-02T19:17:30.639Z,8.70
2022-11-02T19:19:57.480Z,6.20
2022-11-02T19:22:27.400Z,6.35
2022-11-02T19:24:54.167Z,7.38
2022-11-02T19:27:23.190Z,10.70
2022-11-02T19:29:50.294Z,8.00
2022-11-02T19:32:18.061Z,10.60
2022-11-02T19:34:44.882Z,9.00
2022-11-02T19:37:11.772Z,7.15
2022-11-02T19:39:38.483Z,8.95
2022-11-02T19:42:07.239Z,8.95
2022-11-02T19:44:38.157Z,8.07
2022-11-02T19:47:09.222Z,8.55
2022-11-02T19:49:36.010Z,8.05
2022-11-02T19:52:02.717Z,6.35
2022-11-02T19:54:29.399Z,8.43
2022-11-02T19:56:56.082Z,7.18
2022-11-02T19:59:22.819Z,8.32
2022-11-02T20:01:50.958Z,9.75
2022-11-02T20:04:18.090Z,7.65
2022-11-02T20:06:45.086Z,9.20
2022-11-02T20:09:18.003Z,9.63
2022-11-02T20:11:46.413Z,9.70
2022-11-02T20:14:15.138Z,6.78
2022-11-02T20:16:42.174Z,4.05
2022-11-02T20:19:09.203Z,3.38
2022-11-02T20:21:41.653Z,5.35
2022-11-02T20:24:11.096Z,4.68
2022-11-02T20:26:42.979Z,5.50
2022-11-02T20:29:12.375Z,6.32
2022-11-02T20:31:42.356Z,5.68
2022-11-02T20:34:09.311Z,7.50
2022-11-02T20:36:36.442Z,4.38
2022-11-02T20:39:04.788Z,3.42
2022-11-02T20:41:32.085Z,4.75
2022-11-02T20:43:59.180Z,4.18
2022-11-02T20:46:47.401Z,4.53
2022-11-02T20:49:48.635Z,5.35
2022-11-02T20:52:03.043Z,4.45
2022-11-02T20:54:30.046Z,4.70
2022-11-02T20:56:57.690Z,5.10
2022-11-02T20:59:24.401Z,4.65
2022-11-02T21:01:51.355Z,3.92
2022-11-02T21:04:21.171Z,4.60
2022-11-02T21:06:51.430Z,3.05
2022-11-02T21:09:18.854Z,4.60
2022-11-02T21:12:04.425Z,3.95
2022-11-02T21:14:31.194Z,5.43
2022-11-02T21:16:57.959Z,4.75
2022-11-02T21:19:24.703Z,4.55
2022-11-02T21:21:56.534Z,5.50
2022-11-02T21:24:26.092Z,4.60
2022-11-02T21:26:52.838Z,4.38
2022-11-02T21:29:19.601Z,4.38
2022-11-02T21:31:46.328Z,5.00
2022-11-02T21:34:13.025Z,5.45
2022-11-02T21:36:39.811Z,5.25
2022-11-02T21:39:06.501Z,5.15
2022-11-02T21:41:38.231Z,4.38
2022-11-02T21:44:06.832Z,5.40
2022-11-02T21:46:33.579Z,3.83
2022-11-02T21:49:00.475Z,4.15
2022-11-02T21:51:27.235Z,4.25
2022-11-02T21:53:54.441Z,3.90
2022-11-02T21:56:25.598Z,4.55
2022-11-02T21:58:53.853Z,4.63
2022-11-02T22:01:44.233Z,4.43
2022-11-02T22:04:13.631Z,3.53
2022-11-02T22:06:41.024Z,5.00
2022-11-02T22:09:10.566Z,5.45
2022-11-02T22:11:37.295Z,5.88
2022-11-02T22:14:04.171Z,4.35
2022-11-02T22:16:34.857Z,5.13
2022-11-02T22:19:04.216Z,5.32
2022-11-02T22:21:33.400Z,5.20
2022-11-02T22:24:00.834Z,4.93
2022-11-02T22:26:29.067Z,4.55
2022-11-02T22:28:57.675Z,6.07
2022-11-02T22:31:27.018Z,5.88
2022-11-02T22:33:56.401Z,3.90
2022-11-02T22:36:25.727Z,6.15
2022-11-02T22:38:54.264Z,3.97
2022-11-02T22:41:43.033Z,4.00
2022-11-02T22:44:18.544Z,5.13
2022-11-02T22:46:47.594Z,4.93
2022-11-02T22:49:16.101Z,5.53
2022-11-02T22:51:46.326Z,6.03
2022-11-02T22:54:15.612Z,5.82
2022-11-02T22:56:43.486Z,5.28
2022-11-02T22:59:10.451Z,7.57
2022-11-02T23:01:38.264Z,8.05
2022-11-02T23:04:06.207Z,4.70
2022-11-02T23:06:33.236Z,6.55
2022-11-02T23:09:00.048Z,5.18
2022-11-02T23:11:33.259Z,4.53
2022-11-02T23:14:11.769Z,5.82
2022-11-02T23:16:42.056Z,3.42
2022-11-02T23:19:25.212Z,7.38
2022-11-02T23:22:13.605Z,3.95
2022-11-02T23:25:11.047Z,2.72
2022-11-02T23:30:49.442Z,3.75
2022-11-02T23:33:17.189Z,4.55
2022-11-02T23:36:02.401Z,4.20
2022-11-02T23:38:49.681Z,3.92
2022-11-02T23:41:17.972Z,5.38
2022-11-02T23:43:45.156Z,3.42
2022-11-02T23:46:12.040Z,5.20
2022-11-02T23:48:40.838Z,3.17
2022-11-02T23:51:27.713Z,4.45
2022-11-02T23:56:46.050Z,4.28
2022-11-02T23:59:14.536Z,4.18
